sensor_id;sensor_type;location;lat;lon;timestamp;temperature;humidity
13148;DHT22;6639;50.956;4.242;2024-03-06T00:00:19;15.30;99.90
13148;DHT22;6639;50.956;4.242;2024-03-06T00:02:46;15.30;99.90
13148;DHT22;6639;50.956;4.242;2024-03-06T00:05:13;14.90;99.90
13148;DHT22;6639;50.956;4.242;2024-03-06T00:07:40;14.90;99.90
13148;DHT22;6639;50.956;4.242;2024-03-06T00:10:07;14.60;99.90
13148;DHT22;6639;50.956;4.242;2024-03-06T00:12:34;14.40;99.90
13148;DHT22;6639;50.956;4.242;2024-03-06T00:15:03;14.50;99.90
13148;DHT22;6639;50.956;4.242;2024-03-06T00:17:30;14.90;99.90
13148;DHT22;6639;50.956;4.242;2024-03-06T00:19:57;14.90;99.90
13148;DHT22;6639;50.956;4.242;2024-03-06T00:22:23;15.00;99.90
13148;DHT22;6639;50.956;4.242;2024-03-06T00:24:50;15.10;99.90
13148;DHT22;6639;50.956;4.242;2024-03-06T00:27:17;15.00;99.90
13148;DHT22;6639;50.956;4.242;2024-03-06T00:29:46;14.90;99.90
13148;DHT22;6639;50.956;4.242;2024-03-06T00:32:16;14.80;99.90
13148;DHT22;6639;50.956;4.242;2024-03-06T00:34:42;14.70;99.90
13148;DHT22;6639;50.956;4.242;2024-03-06T00:37:09;14.90;99.90
13148;DHT22;6639;50.956;4.242;2024-03-06T00:39:36;15.00;99.90
13148;DHT22;6639;50.956;4.242;2024-03-06T00:42:03;14.90;99.90
13148;DHT22;6639;50.956;4.242;2024-03-06T00:44:30;14.90;99.90
13148;DHT22;6639;50.956;4.242;2024-03-06T00:46:57;14.90;99.90
13148;DHT22;6639;50.956;4.242;2024-03-06T00:49:25;14.90;99.90
13148;DHT22;6639;50.956;4.242;2024-03-06T00:51:53;15.10;99.90
13148;DHT22;6639;50.956;4.242;2024-03-06T00:54:20;15.00;99.90
13148;DHT22;6639;50.956;4.242;2024-03-06T00:56:47;15.10;99.90
13148;DHT22;6639;50.956;4.242;2024-03-06T00:59:14;15.20;99.90
13148;DHT22;6639;50.956;4.242;2024-03-06T01:01:41;15.10;99.90
13148;DHT22;6639;50.956;4.242;2024-03-06T01:04:10;15.20;99.90
13148;DHT22;6639;50.956;4.242;2024-03-06T01:06:44;15.10;99.90
13148;DHT22;6639;50.956;4.242;2024-03-06T01:09:14;15.20;99.90
13148;DHT22;6639;50.956;4.242;2024-03-06T01:11:46;15.20;99.90
13148;DHT22;6639;50.956;4.242;2024-03-06T01:14:27;15.20;99.90
13148;DHT22;6639;50.956;4.242;2024-03-06T01:16:54;15.20;99.90
13148;DHT22;6639;50.956;4.242;2024-03-06T01:19:21;15.20;99.90
13148;DHT22;6639;50.956;4.242;2024-03-06T01:21:49;15.20;99.90
13148;DHT22;6639;50.956;4.242;2024-03-06T01:24:16;15.00;99.90
13148;DHT22;6639;50.956;4.242;2024-03-06T01:26:43;14.90;99.90
13148;DHT22;6639;50.956;4.242;2024-03-06T01:29:10;14.70;99.90
13148;DHT22;6639;50.956;4.242;2024-03-06T01:31:37;14.70;99.90
13148;DHT22;6639;50.956;4.242;2024-03-06T01:34:04;14.80;99.90
13148;DHT22;6639;50.956;4.242;2024-03-06T01:36:31;14.90;99.90
13148;DHT22;6639;50.956;4.242;2024-03-06T01:39:00;15.00;99.90
13148;DHT22;6639;50.956;4.242;2024-03-06T01:41:27;15.10;99.90
13148;DHT22;6639;50.956;4.242;2024-03-06T01:43:54;15.10;99.90
13148;DHT22;6639;50.956;4.242;2024-03-06T01:46:21;15.20;99.90
13148;DHT22;6639;50.956;4.242;2024-03-06T01:48:48;15.20;99.90
13148;DHT22;6639;50.956;4.242;2024-03-06T01:51:15;15.20;99.90
13148;DHT22;6639;50.956;4.242;2024-03-06T01:53:42;15.20;99.90
13148;DHT22;6639;50.956;4.242;2024-03-06T01:56:10;15.00;99.90
13148;DHT22;6639;50.956;4.242;2024-03-06T01:58:43;15.10;99.90
13148;DHT22;6639;50.956;4.242;2024-03-06T02:01:12;15.10;99.90
13148;DHT22;6639;50.956;4.242;2024-03-06T02:03:40;15.00;99.90
13148;DHT22;6639;50.956;4.242;2024-03-06T02:06:07;15.00;99.90
13148;DHT22;6639;50.956;4.242;2024-03-06T02:08:36;15.00;99.90
13148;DHT22;6639;50.956;4.242;2024-03-06T02:11:03;15.00;99.90
13148;DHT22;6639;50.956;4.242;2024-03-06T02:13:34;14.90;99.90
13148;DHT22;6639;50.956;4.242;2024-03-06T02:16:01;15.00;99.90
13148;DHT22;6639;50.956;4.242;2024-03-06T02:18:27;15.10;99.90
13148;DHT22;6639;50.956;4.242;2024-03-06T02:20:56;15.00;99.90
13148;DHT22;6639;50.956;4.242;2024-03-06T02:23:23;15.00;99.90
13148;DHT22;6639;50.956;4.242;2024-03-06T02:25:50;15.00;99.90
13148;DHT22;6639;50.956;4.242;2024-03-06T02:28:17;15.00;99.90
13148;DHT22;6639;50.956;4.242;2024-03-06T02:30:44;14.90;99.90
13148;DHT22;6639;50.956;4.242;2024-03-06T02:33:14;14.90;99.90
13148;DHT22;6639;50.956;4.242;2024-03-06T02:35:40;14.80;99.90
13148;DHT22;6639;50.956;4.242;2024-03-06T02:38:11;14.80;99.90
13148;DHT22;6639;50.956;4.242;2024-03-06T02:40:38;14.70;99.90
13148;DHT22;6639;50.956;4.242;2024-03-06T02:43:05;14.60;99.90
13148;DHT22;6639;50.956;4.242;2024-03-06T02:45:32;14.60;99.90
13148;DHT22;6639;50.956;4.242;2024-03-06T02:47:59;14.50;99.90
13148;DHT22;6639;50.956;4.242;2024-03-06T02:50:26;14.50;99.90
13148;DHT22;6639;50.956;4.242;2024-03-06T02:52:52;14.50;99.90
13148;DHT22;6639;50.956;4.242;2024-03-06T02:55:22;14.50;99.90
13148;DHT22;6639;50.956;4.242;2024-03-06T02:57:49;14.60;99.90
13148;DHT22;6639;50.956;4.242;2024-03-06T03:00:16;14.70;99.90
13148;DHT22;6639;50.956;4.242;2024-03-06T03:02:43;14.70;99.90
13148;DHT22;6639;50.956;4.242;2024-03-06T03:05:10;14.80;99.90
13148;DHT22;6639;50.956;4.242;2024-03-06T03:07:37;14.80;99.90
13148;DHT22;6639;50.956;4.242;2024-03-06T03:10:04;14.90;99.90
13148;DHT22;6639;50.956;4.242;2024-03-06T03:12:33;14.80;99.90
13148;DHT22;6639;50.956;4.242;2024-03-06T03:15:00;14.70;99.90
13148;DHT22;6639;50.956;4.242;2024-03-06T03:17:27;14.60;99.90
13148;DHT22;6639;50.956;4.242;2024-03-06T03:19:54;14.60;99.90
13148;DHT22;6639;50.956;4.242;2024-03-06T03:22:21;14.50;99.90
13148;DHT22;6639;50.956;4.242;2024-03-06T03:24:48;14.50;99.90
13148;DHT22;6639;50.956;4.242;2024-03-06T03:27:14;14.50;99.90
13148;DHT22;6639;50.956;4.242;2024-03-06T03:29:43;14.60;99.90
13148;DHT22;6639;50.956;4.242;2024-03-06T03:32:10;14.60;99.90
13148;DHT22;6639;50.956;4.242;2024-03-06T03:34:37;14.50;99.90
13148;DHT22;6639;50.956;4.242;2024-03-06T03:37:04;14.50;99.90
13148;DHT22;6639;50.956;4.242;2024-03-06T03:39:31;14.50;99.90
13148;DHT22;6639;50.956;4.242;2024-03-06T03:41:58;14.40;99.90
13148;DHT22;6639;50.956;4.242;2024-03-06T03:44:25;14.40;99.90
13148;DHT22;6639;50.956;4.242;2024-03-06T03:46:53;14.40;99.90
13148;DHT22;6639;50.956;4.242;2024-03-06T03:49:20;14.40;99.90
13148;DHT22;6639;50.956;4.242;2024-03-06T03:51:46;14.40;99.90
13148;DHT22;6639;50.956;4.242;2024-03-06T03:54:13;14.40;99.90
13148;DHT22;6639;50.956;4.242;2024-03-06T03:56:40;14.40;99.90
13148;DHT22;6639;50.956;4.242;2024-03-06T03:59:07;14.30;99.90
13148;DHT22;6639;50.956;4.242;2024-03-06T04:01:34;14.20;99.90
13148;DHT22;6639;50.956;4.242;2024-03-06T04:04:03;14.10;99.90
13148;DHT22;6639;50.956;4.242;2024-03-06T04:06:30;14.00;99.90
13148;DHT22;6639;50.956;4.242;2024-03-06T04:08:56;14.00;99.90
13148;DHT22;6639;50.956;4.242;2024-03-06T04:11:23;14.00;99.90
13148;DHT22;6639;50.956;4.242;2024-03-06T04:13:50;14.00;99.90
13148;DHT22;6639;50.956;4.242;2024-03-06T04:16:17;13.90;99.90
13148;DHT22;6639;50.956;4.242;2024-03-06T04:18:44;13.90;99.90
13148;DHT22;6639;50.956;4.242;2024-03-06T04:21:13;13.70;99.90
13148;DHT22;6639;50.956;4.242;2024-03-06T04:23:40;13.60;99.90
13148;DHT22;6639;50.956;4.242;2024-03-06T04:26:07;13.40;99.90
13148;DHT22;6639;50.956;4.242;2024-03-06T04:28:36;13.40;99.90
13148;DHT22;6639;50.956;4.242;2024-03-06T04:31:04;13.40;99.90
13148;DHT22;6639;50.956;4.242;2024-03-06T04:33:31;13.40;99.90
13148;DHT22;6639;50.956;4.242;2024-03-06T04:35:58;13.50;99.90
13148;DHT22;6639;50.956;4.242;2024-03-06T04:38:29;13.40;99.90
13148;DHT22;6639;50.956;4.242;2024-03-06T04:40:56;13.30;99.90
13148;DHT22;6639;50.956;4.242;2024-03-06T04:43:22;13.30;99.90
13148;DHT22;6639;50.956;4.242;2024-03-06T04:45:49;13.40;99.90
13148;DHT22;6639;50.956;4.242;2024-03-06T04:48:17;13.40;99.90
13148;DHT22;6639;50.956;4.242;2024-03-06T04:50:43;13.40;99.90
13148;DHT22;6639;50.956;4.242;2024-03-06T04:53:11;13.40;99.90
13148;DHT22;6639;50.956;4.242;2024-03-06T04:55:39;13.40;99.90
13148;DHT22;6639;50.956;4.242;2024-03-06T04:58:06;13.50;99.90
13148;DHT22;6639;50.956;4.242;2024-03-06T05:00:34;13.50;99.90
13148;DHT22;6639;50.956;4.242;2024-03-06T05:03:01;13.40;99.90
13148;DHT22;6639;50.956;4.242;2024-03-06T05:05:29;13.40;99.90
13148;DHT22;6639;50.956;4.242;2024-03-06T05:07:57;13.30;99.90
13148;DHT22;6639;50.956;4.242;2024-03-06T05:10:24;13.30;99.90
13148;DHT22;6639;50.956;4.242;2024-03-06T05:12:53;13.20;99.90
13148;DHT22;6639;50.956;4.242;2024-03-06T05:15:20;13.30;99.90
13148;DHT22;6639;50.956;4.242;2024-03-06T05:17:47;13.20;99.90
13148;DHT22;6639;50.956;4.242;2024-03-06T05:20:14;13.00;99.90
13148;DHT22;6639;50.956;4.242;2024-03-06T05:22:42;12.90;99.90
13148;DHT22;6639;50.956;4.242;2024-03-06T05:25:09;13.00;99.90
13148;DHT22;6639;50.956;4.242;2024-03-06T05:27:35;12.90;99.90
13148;DHT22;6639;50.956;4.242;2024-03-06T05:30:05;13.00;99.90
13148;DHT22;6639;50.956;4.242;2024-03-06T05:32:34;12.90;99.90
13148;DHT22;6639;50.956;4.242;2024-03-06T05:35:01;12.90;99.90
13148;DHT22;6639;50.956;4.242;2024-03-06T05:37:28;12.90;99.90
13148;DHT22;6639;50.956;4.242;2024-03-06T05:39:54;12.90;99.90
13148;DHT22;6639;50.956;4.242;2024-03-06T05:42:21;12.80;99.90
13148;DHT22;6639;50.956;4.242;2024-03-06T05:44:48;12.80;99.90
13148;DHT22;6639;50.956;4.242;2024-03-06T05:47:17;12.70;99.90
13148;DHT22;6639;50.956;4.242;2024-03-06T05:49:44;12.80;99.90
13148;DHT22;6639;50.956;4.242;2024-03-06T05:52:13;12.70;99.90
13148;DHT22;6639;50.956;4.242;2024-03-06T05:54:40;12.60;99.90
13148;DHT22;6639;50.956;4.242;2024-03-06T05:57:07;12.60;99.90
13148;DHT22;6639;50.956;4.242;2024-03-06T05:59:34;12.60;99.90
13148;DHT22;6639;50.956;4.242;2024-03-06T06:02:00;12.60;99.90
13148;DHT22;6639;50.956;4.242;2024-03-06T06:04:31;12.60;99.90
13148;DHT22;6639;50.956;4.242;2024-03-06T06:06:57;12.60;99.90
13148;DHT22;6639;50.956;4.242;2024-03-06T06:09:24;12.60;99.90
13148;DHT22;6639;50.956;4.242;2024-03-06T06:11:52;12.60;99.90
13148;DHT22;6639;50.956;4.242;2024-03-06T06:14:20;12.60;99.90
13148;DHT22;6639;50.956;4.242;2024-03-06T06:16:47;12.60;99.90
13148;DHT22;6639;50.956;4.242;2024-03-06T06:19:14;12.60;99.90
13148;DHT22;6639;50.956;4.242;2024-03-06T06:21:44;12.70;99.90
13148;DHT22;6639;50.956;4.242;2024-03-06T06:24:13;12.50;99.90
13148;DHT22;6639;50.956;4.242;2024-03-06T06:26:40;12.50;99.90
13148;DHT22;6639;50.956;4.242;2024-03-06T06:29:07;12.50;99.90
13148;DHT22;6639;50.956;4.242;2024-03-06T06:31:35;12.60;99.90
13148;DHT22;6639;50.956;4.242;2024-03-06T06:34:02;12.60;99.90
13148;DHT22;6639;50.956;4.242;2024-03-06T06:36:29;12.70;99.90
13148;DHT22;6639;50.956;4.242;2024-03-06T06:38:58;12.60;99.90
13148;DHT22;6639;50.956;4.242;2024-03-06T06:41:25;12.70;99.90
13148;DHT22;6639;50.956;4.242;2024-03-06T06:43:52;12.70;99.90
13148;DHT22;6639;50.956;4.242;2024-03-06T06:46:19;12.80;99.90
13148;DHT22;6639;50.956;4.242;2024-03-06T06:48:46;12.80;99.90
13148;DHT22;6639;50.956;4.242;2024-03-06T06:51:14;12.80;99.90
13148;DHT22;6639;50.956;4.242;2024-03-06T06:53:41;12.90;99.90
13148;DHT22;6639;50.956;4.242;2024-03-06T06:56:09;12.90;99.90
13148;DHT22;6639;50.956;4.242;2024-03-06T06:58:37;12.90;99.90
13148;DHT22;6639;50.956;4.242;2024-03-06T07:01:08;13.00;99.90
13148;DHT22;6639;50.956;4.242;2024-03-06T07:03:35;13.10;99.90
13148;DHT22;6639;50.956;4.242;2024-03-06T07:06:02;13.10;99.90
13148;DHT22;6639;50.956;4.242;2024-03-06T07:08:30;13.30;99.90
13148;DHT22;6639;50.956;4.242;2024-03-06T07:10:57;13.50;99.90
13148;DHT22;6639;50.956;4.242;2024-03-06T07:13:25;13.70;99.90
13148;DHT22;6639;50.956;4.242;2024-03-06T07:15:52;14.00;99.90
13148;DHT22;6639;50.956;4.242;2024-03-06T07:18:21;14.30;99.90
13148;DHT22;6639;50.956;4.242;2024-03-06T07:20:49;14.60;99.90
13148;DHT22;6639;50.956;4.242;2024-03-06T07:23:16;15.00;99.90
13148;DHT22;6639;50.956;4.242;2024-03-06T07:25:43;15.40;99.90
13148;DHT22;6639;50.956;4.242;2024-03-06T07:28:10;15.70;99.90
13148;DHT22;6639;50.956;4.242;2024-03-06T07:30:38;16.10;99.90
13148;DHT22;6639;50.956;4.242;2024-03-06T07:33:05;16.40;99.90
13148;DHT22;6639;50.956;4.242;2024-03-06T07:35:33;16.30;99.90
13148;DHT22;6639;50.956;4.242;2024-03-06T07:38:01;16.30;99.90
13148;DHT22;6639;50.956;4.242;2024-03-06T07:40:29;16.30;99.90
13148;DHT22;6639;50.956;4.242;2024-03-06T07:42:56;16.50;99.90
13148;DHT22;6639;50.956;4.242;2024-03-06T07:45:25;16.80;99.90
13148;DHT22;6639;50.956;4.242;2024-03-06T07:47:53;17.20;99.90
13148;DHT22;6639;50.956;4.242;2024-03-06T07:50:20;17.60;99.90
13148;DHT22;6639;50.956;4.242;2024-03-06T07:52:47;18.00;99.90
13148;DHT22;6639;50.956;4.242;2024-03-06T07:55:14;18.40;99.90
13148;DHT22;6639;50.956;4.242;2024-03-06T07:57:41;18.60;99.90
13148;DHT22;6639;50.956;4.242;2024-03-06T08:00:08;18.50;99.40
13148;DHT22;6639;50.956;4.242;2024-03-06T08:02:40;18.40;99.50
13148;DHT22;6639;50.956;4.242;2024-03-06T08:05:10;18.40;99.90
13148;DHT22;6639;50.956;4.242;2024-03-06T08:07:38;18.40;99.50
13148;DHT22;6639;50.956;4.242;2024-03-06T08:10:08;17.90;99.90
13148;DHT22;6639;50.956;4.242;2024-03-06T08:12:38;17.10;99.90
13148;DHT22;6639;50.956;4.242;2024-03-06T08:15:07;17.90;99.90
13148;DHT22;6639;50.956;4.242;2024-03-06T08:17:36;18.50;99.90
13148;DHT22;6639;50.956;4.242;2024-03-06T08:20:03;19.00;99.60
13148;DHT22;6639;50.956;4.242;2024-03-06T08:22:34;19.20;99.20
13148;DHT22;6639;50.956;4.242;2024-03-06T08:25:05;19.10;98.90
13148;DHT22;6639;50.956;4.242;2024-03-06T08:27:33;19.10;98.90
13148;DHT22;6639;50.956;4.242;2024-03-06T08:30:00;19.10;99.40
13148;DHT22;6639;50.956;4.242;2024-03-06T08:32:30;19.30;98.90
13148;DHT22;6639;50.956;4.242;2024-03-06T08:34:57;19.40;98.70
13148;DHT22;6639;50.956;4.242;2024-03-06T08:37:24;19.30;99.00
13148;DHT22;6639;50.956;4.242;2024-03-06T08:39:52;19.30;99.40
13148;DHT22;6639;50.956;4.242;2024-03-06T08:42:19;19.30;99.20
13148;DHT22;6639;50.956;4.242;2024-03-06T08:44:46;18.30;99.70
13148;DHT22;6639;50.956;4.242;2024-03-06T08:47:13;18.90;99.60
13148;DHT22;6639;50.956;4.242;2024-03-06T08:49:40;18.60;99.70
13148;DHT22;6639;50.956;4.242;2024-03-06T08:52:07;18.70;99.50
13148;DHT22;6639;50.956;4.242;2024-03-06T08:54:35;18.60;99.60
13148;DHT22;6639;50.956;4.242;2024-03-06T08:57:04;18.80;99.30
13148;DHT22;6639;50.956;4.242;2024-03-06T08:59:31;18.60;99.90
13148;DHT22;6639;50.956;4.242;2024-03-06T09:01:58;18.80;99.90
13148;DHT22;6639;50.956;4.242;2024-03-06T09:04:37;18.90;99.30
13148;DHT22;6639;50.956;4.242;2024-03-06T09:07:04;19.10;99.90
13148;DHT22;6639;50.956;4.242;2024-03-06T09:09:31;19.30;99.80
13148;DHT22;6639;50.956;4.242;2024-03-06T09:11:59;19.20;99.30
13148;DHT22;6639;50.956;4.242;2024-03-06T09:14:28;19.40;99.30
13148;DHT22;6639;50.956;4.242;2024-03-06T09:16:55;19.40;98.90
13148;DHT22;6639;50.956;4.242;2024-03-06T09:19:21;19.50;99.10
13148;DHT22;6639;50.956;4.242;2024-03-06T09:21:48;20.20;99.10
13148;DHT22;6639;50.956;4.242;2024-03-06T09:24:15;20.00;98.10
13148;DHT22;6639;50.956;4.242;2024-03-06T09:26:43;20.30;98.60
13148;DHT22;6639;50.956;4.242;2024-03-06T09:29:10;20.90;98.00
13148;DHT22;6639;50.956;4.242;2024-03-06T09:31:38;21.40;97.40
13148;DHT22;6639;50.956;4.242;2024-03-06T09:34:05;21.60;97.50
13148;DHT22;6639;50.956;4.242;2024-03-06T09:36:32;22.10;97.00
13148;DHT22;6639;50.956;4.242;2024-03-06T09:39:00;22.20;96.70
13148;DHT22;6639;50.956;4.242;2024-03-06T09:41:27;22.70;96.40
13148;DHT22;6639;50.956;4.242;2024-03-06T09:43:53;23.00;94.90
13148;DHT22;6639;50.956;4.242;2024-03-06T09:46:21;23.50;94.80
13148;DHT22;6639;50.956;4.242;2024-03-06T09:48:51;23.70;94.40
13148;DHT22;6639;50.956;4.242;2024-03-06T09:51:18;23.80;94.30
13148;DHT22;6639;50.956;4.242;2024-03-06T09:53:46;24.10;94.30
13148;DHT22;6639;50.956;4.242;2024-03-06T09:56:15;24.20;94.50
13148;DHT22;6639;50.956;4.242;2024-03-06T09:58:42;24.40;93.90
13148;DHT22;6639;50.956;4.242;2024-03-06T10:01:10;24.40;93.90
13148;DHT22;6639;50.956;4.242;2024-03-06T10:03:39;24.40;93.90
13148;DHT22;6639;50.956;4.242;2024-03-06T10:06:08;24.70;93.40
13148;DHT22;6639;50.956;4.242;2024-03-06T10:08:35;24.70;91.80
13148;DHT22;6639;50.956;4.242;2024-03-06T10:11:03;24.90;92.60
13148;DHT22;6639;50.956;4.242;2024-03-06T10:13:31;24.80;92.30
13148;DHT22;6639;50.956;4.242;2024-03-06T10:16:00;25.00;92.20
13148;DHT22;6639;50.956;4.242;2024-03-06T10:18:27;25.30;92.30
13148;DHT22;6639;50.956;4.242;2024-03-06T10:20:54;24.80;92.40
13148;DHT22;6639;50.956;4.242;2024-03-06T10:23:23;25.20;91.80
13148;DHT22;6639;50.956;4.242;2024-03-06T10:25:51;25.50;92.00
13148;DHT22;6639;50.956;4.242;2024-03-06T10:28:19;25.80;91.10
13148;DHT22;6639;50.956;4.242;2024-03-06T10:30:48;26.20;90.70
13148;DHT22;6639;50.956;4.242;2024-03-06T10:33:16;26.00;90.90
13148;DHT22;6639;50.956;4.242;2024-03-06T10:35:45;25.00;91.50
13148;DHT22;6639;50.956;4.242;2024-03-06T10:38:12;25.20;91.50
13148;DHT22;6639;50.956;4.242;2024-03-06T10:40:42;25.70;90.80
13148;DHT22;6639;50.956;4.242;2024-03-06T10:43:12;24.80;91.50
13148;DHT22;6639;50.956;4.242;2024-03-06T10:45:47;25.00;91.80
13148;DHT22;6639;50.956;4.242;2024-03-06T10:48:15;24.50;91.70
13148;DHT22;6639;50.956;4.242;2024-03-06T10:50:43;24.80;91.40
13148;DHT22;6639;50.956;4.242;2024-03-06T10:53:11;25.20;91.40
13148;DHT22;6639;50.956;4.242;2024-03-06T10:55:40;25.20;92.30
13148;DHT22;6639;50.956;4.242;2024-03-06T10:58:10;25.50;91.80
13148;DHT22;6639;50.956;4.242;2024-03-06T11:00:38;25.50;91.20
13148;DHT22;6639;50.956;4.242;2024-03-06T11:03:05;25.50;90.70
13148;DHT22;6639;50.956;4.242;2024-03-06T11:05:35;25.00;91.20
13148;DHT22;6639;50.956;4.242;2024-03-06T11:08:06;24.20;91.00
13148;DHT22;6639;50.956;4.242;2024-03-06T11:10:34;24.20;91.90
13148;DHT22;6639;50.956;4.242;2024-03-06T11:13:03;23.90;91.30
13148;DHT22;6639;50.956;4.242;2024-03-06T11:15:31;23.60;91.80
13148;DHT22;6639;50.956;4.242;2024-03-06T11:17:57;23.40;91.60
13148;DHT22;6639;50.956;4.242;2024-03-06T11:20:33;23.00;92.40
13148;DHT22;6639;50.956;4.242;2024-03-06T11:23:04;23.10;92.80
13148;DHT22;6639;50.956;4.242;2024-03-06T11:25:56;23.20;91.90
13148;DHT22;6639;50.956;4.242;2024-03-06T11:28:27;23.40;92.50
13148;DHT22;6639;50.956;4.242;2024-03-06T11:30:58;23.60;91.20
13148;DHT22;6639;50.956;4.242;2024-03-06T11:33:35;24.00;91.50
13148;DHT22;6639;50.956;4.242;2024-03-06T11:36:17;23.80;91.10
13148;DHT22;6639;50.956;4.242;2024-03-06T11:38:50;23.30;91.70
13148;DHT22;6639;50.956;4.242;2024-03-06T11:41:18;22.90;91.30
13148;DHT22;6639;50.956;4.242;2024-03-06T11:43:49;22.80;91.60
13148;DHT22;6639;50.956;4.242;2024-03-06T11:46:19;23.00;92.30
13148;DHT22;6639;50.956;4.242;2024-03-06T11:48:53;22.80;91.80
13148;DHT22;6639;50.956;4.242;2024-03-06T11:51:21;22.30;91.70
13148;DHT22;6639;50.956;4.242;2024-03-06T11:53:52;22.10;92.80
13148;DHT22;6639;50.956;4.242;2024-03-06T11:56:19;22.00;92.90
13148;DHT22;6639;50.956;4.242;2024-03-06T11:58:48;22.20;92.70
13148;DHT22;6639;50.956;4.242;2024-03-06T12:01:15;22.30;92.30
13148;DHT22;6639;50.956;4.242;2024-03-06T12:03:42;22.40;92.30
13148;DHT22;6639;50.956;4.242;2024-03-06T12:06:10;22.40;93.00
13148;DHT22;6639;50.956;4.242;2024-03-06T12:08:39;22.90;92.70
13148;DHT22;6639;50.956;4.242;2024-03-06T12:11:06;23.20;92.00
13148;DHT22;6639;50.956;4.242;2024-03-06T12:13:33;23.40;92.60
13148;DHT22;6639;50.956;4.242;2024-03-06T12:16:05;23.50;92.20
13148;DHT22;6639;50.956;4.242;2024-03-06T12:18:33;23.50;92.00
13148;DHT22;6639;50.956;4.242;2024-03-06T12:21:01;23.50;92.00
13148;DHT22;6639;50.956;4.242;2024-03-06T12:23:29;23.60;90.80
13148;DHT22;6639;50.956;4.242;2024-03-06T12:26:03;23.30;90.90
13148;DHT22;6639;50.956;4.242;2024-03-06T12:28:31;23.50;91.10
13148;DHT22;6639;50.956;4.242;2024-03-06T12:31:01;23.20;90.80
13148;DHT22;6639;50.956;4.242;2024-03-06T12:33:30;22.90;91.10
13148;DHT22;6639;50.956;4.242;2024-03-06T12:36:04;23.50;91.60
13148;DHT22;6639;50.956;4.242;2024-03-06T12:38:32;23.90;90.60
13148;DHT22;6639;50.956;4.242;2024-03-06T12:40:59;23.90;89.10
13148;DHT22;6639;50.956;4.242;2024-03-06T12:43:26;23.40;89.20
13148;DHT22;6639;50.956;4.242;2024-03-06T12:45:54;23.70;90.20
13148;DHT22;6639;50.956;4.242;2024-03-06T12:48:22;23.60;90.50
13148;DHT22;6639;50.956;4.242;2024-03-06T12:50:51;23.70;90.50
13148;DHT22;6639;50.956;4.242;2024-03-06T12:53:20;23.50;90.40
13148;DHT22;6639;50.956;4.242;2024-03-06T12:55:47;23.60;90.00
13148;DHT22;6639;50.956;4.242;2024-03-06T12:58:14;23.70;89.30
13148;DHT22;6639;50.956;4.242;2024-03-06T13:00:41;23.70;90.10
13148;DHT22;6639;50.956;4.242;2024-03-06T13:03:09;23.30;89.70
13148;DHT22;6639;50.956;4.242;2024-03-06T13:05:36;23.10;89.40
13148;DHT22;6639;50.956;4.242;2024-03-06T13:08:05;23.00;89.30
13148;DHT22;6639;50.956;4.242;2024-03-06T13:10:32;23.10;89.40
13148;DHT22;6639;50.956;4.242;2024-03-06T13:13:01;23.30;89.80
13148;DHT22;6639;50.956;4.242;2024-03-06T13:15:28;22.90;88.80
13148;DHT22;6639;50.956;4.242;2024-03-06T13:17:55;22.60;90.20
13148;DHT22;6639;50.956;4.242;2024-03-06T13:20:22;22.40;88.70
13148;DHT22;6639;50.956;4.242;2024-03-06T13:22:49;22.10;90.10
13148;DHT22;6639;50.956;4.242;2024-03-06T13:25:17;22.00;90.50
13148;DHT22;6639;50.956;4.242;2024-03-06T13:27:44;21.90;90.30
13148;DHT22;6639;50.956;4.242;2024-03-06T13:30:12;22.00;90.40
13148;DHT22;6639;50.956;4.242;2024-03-06T13:32:39;22.10;90.60
13148;DHT22;6639;50.956;4.242;2024-03-06T13:35:08;21.90;91.10
13148;DHT22;6639;50.956;4.242;2024-03-06T13:37:37;21.50;90.40
13148;DHT22;6639;50.956;4.242;2024-03-06T13:40:06;21.30;90.90
13148;DHT22;6639;50.956;4.242;2024-03-06T13:42:35;21.50;90.40
13148;DHT22;6639;50.956;4.242;2024-03-06T13:45:04;21.30;91.40
13148;DHT22;6639;50.956;4.242;2024-03-06T13:47:37;21.10;91.20
13148;DHT22;6639;50.956;4.242;2024-03-06T13:50:05;20.70;91.00
13148;DHT22;6639;50.956;4.242;2024-03-06T13:52:34;20.50;91.20
13148;DHT22;6639;50.956;4.242;2024-03-06T13:55:01;20.80;91.40
13148;DHT22;6639;50.956;4.242;2024-03-06T13:57:30;20.20;91.60
13148;DHT22;6639;50.956;4.242;2024-03-06T14:00:00;20.40;91.70
13148;DHT22;6639;50.956;4.242;2024-03-06T14:02:28;20.80;91.20
13148;DHT22;6639;50.956;4.242;2024-03-06T14:04:55;20.20;91.90
13148;DHT22;6639;50.956;4.242;2024-03-06T14:07:22;20.40;92.00
13148;DHT22;6639;50.956;4.242;2024-03-06T14:09:50;20.80;91.90
13148;DHT22;6639;50.956;4.242;2024-03-06T14:12:17;21.10;91.70
13148;DHT22;6639;50.956;4.242;2024-03-06T14:14:44;21.00;91.20
13148;DHT22;6639;50.956;4.242;2024-03-06T14:17:19;21.10;91.40
13148;DHT22;6639;50.956;4.242;2024-03-06T14:19:46;21.10;90.80
13148;DHT22;6639;50.956;4.242;2024-03-06T14:22:13;21.20;91.00
13148;DHT22;6639;50.956;4.242;2024-03-06T14:24:42;21.50;90.70
13148;DHT22;6639;50.956;4.242;2024-03-06T14:27:09;21.60;90.40
13148;DHT22;6639;50.956;4.242;2024-03-06T14:29:36;21.30;89.70
13148;DHT22;6639;50.956;4.242;2024-03-06T14:32:03;21.50;90.00
13148;DHT22;6639;50.956;4.242;2024-03-06T14:34:32;21.70;88.90
13148;DHT22;6639;50.956;4.242;2024-03-06T14:36:59;21.80;88.90
13148;DHT22;6639;50.956;4.242;2024-03-06T14:39:26;21.40;89.40
13148;DHT22;6639;50.956;4.242;2024-03-06T14:41:53;21.40;90.10
13148;DHT22;6639;50.956;4.242;2024-03-06T14:44:20;21.70;88.90
13148;DHT22;6639;50.956;4.242;2024-03-06T14:46:47;21.60;89.60
13148;DHT22;6639;50.956;4.242;2024-03-06T14:49:14;21.40;89.90
13148;DHT22;6639;50.956;4.242;2024-03-06T14:51:43;21.00;90.40
13148;DHT22;6639;50.956;4.242;2024-03-06T14:54:10;21.20;90.80
13148;DHT22;6639;50.956;4.242;2024-03-06T14:56:41;21.30;90.60
13148;DHT22;6639;50.956;4.242;2024-03-06T14:59:08;21.10;90.70
13148;DHT22;6639;50.956;4.242;2024-03-06T15:01:35;21.10;90.70
13148;DHT22;6639;50.956;4.242;2024-03-06T15:04:03;20.60;90.70
13148;DHT22;6639;50.956;4.242;2024-03-06T15:06:31;20.20;91.40
13148;DHT22;6639;50.956;4.242;2024-03-06T15:08:59;19.80;92.10
13148;DHT22;6639;50.956;4.242;2024-03-06T15:11:26;19.80;92.00
13148;DHT22;6639;50.956;4.242;2024-03-06T15:13:57;19.80;91.90
13148;DHT22;6639;50.956;4.242;2024-03-06T15:16:24;20.00;92.10
13148;DHT22;6639;50.956;4.242;2024-03-06T15:18:52;19.80;91.50
13148;DHT22;6639;50.956;4.242;2024-03-06T15:21:21;19.50;91.40
13148;DHT22;6639;50.956;4.242;2024-03-06T15:23:48;19.70;91.90
13148;DHT22;6639;50.956;4.242;2024-03-06T15:26:18;19.90;91.70
13148;DHT22;6639;50.956;4.242;2024-03-06T15:28:45;20.10;91.40
13148;DHT22;6639;50.956;4.242;2024-03-06T15:31:12;20.50;91.30
13148;DHT22;6639;50.956;4.242;2024-03-06T15:33:39;20.70;91.00
13148;DHT22;6639;50.956;4.242;2024-03-06T15:36:06;20.90;91.20
13148;DHT22;6639;50.956;4.242;2024-03-06T15:38:33;21.00;90.90
13148;DHT22;6639;50.956;4.242;2024-03-06T15:41:03;21.20;90.60
13148;DHT22;6639;50.956;4.242;2024-03-06T15:43:31;21.30;90.40
13148;DHT22;6639;50.956;4.242;2024-03-06T15:45:58;21.40;90.40
13148;DHT22;6639;50.956;4.242;2024-03-06T15:48:25;21.40;90.40